Time;durP1;ratioP1;P1;durP2;ratioP2;P2;SDS_P1;SDS_P2;PMS_P1;PMS_P2;Temp;Humidity;BMP_temperature;BMP_pressure;BME280_temperature;BME280_humidity;BME280_pressure;Samples;Min_cycle;Max_cycle;Signal;HPM_P1;HPM_P2
2022/10/03 00:01:26;;;;;;;8.48;6.93;;;;;;;12.48;87.65;97466.50;5042299;28;20072;-81
2022/10/03 00:04:10;;;;;;;13.05;7.95;;;;;;;12.45;85.49;97461.63;5041636;28;20053;-80
2022/10/03 00:06:48;;;;;;;8.82;7.90;;;;;;;12.44;86.47;97460.00;5041558;28;20049;-81
2022/10/03 00:09:33;;;;;;;6.90;6.20;;;;;;;12.44;87.36;97464.41;5042178;28;20083;-80
2022/10/03 00:12:19;;;;;;;8.00;7.05;;;;;;;12.42;87.26;97459.38;5042745;28;20088;-81
2022/10/03 00:15:00;;;;;;;10.30;8.15;;;;;;;12.43;86.93;97452.31;5042503;28;20057;-80
2022/10/03 00:17:47;;;;;;;8.40;6.63;;;;;;;12.42;86.86;97455.91;5041206;28;20111;-80
2022/10/03 00:20:44;;;;;;;9.80;7.70;;;;;;;12.44;87.23;97464.41;5041720;28;20060;-80
2022/10/03 00:23:20;;;;;;;9.38;8.23;;;;;;;12.46;86.50;97467.66;5042104;28;20049;-81
2022/10/03 00:26:25;;;;;;;10.00;7.53;;;;;;;12.47;87.71;97474.56;5041995;28;20072;-80
2022/10/03 00:29:03;;;;;;;8.88;7.40;;;;;;;12.49;88.80;97462.91;5040868;28;20422;-81
2022/10/03 00:31:45;;;;;;;8.65;7.72;;;;;;;12.52;89.01;97472.22;5041251;28;20049;-81
2022/10/03 00:34:27;;;;;;;10.23;8.15;;;;;;;12.50;87.59;97471.56;5041693;28;20045;-80
2022/10/03 00:37:15;;;;;;;9.73;8.03;;;;;;;12.46;86.96;97470.28;5042561;28;20082;-80
2022/10/03 00:40:10;;;;;;;9.32;7.78;;;;;;;12.46;87.92;97472.91;5041659;28;20056;-81
2022/10/03 00:43:07;;;;;;;8.77;7.97;;;;;;;12.46;87.12;97473.75;5042034;28;20103;-81
2022/10/03 00:45:54;;;;;;;10.55;7.68;;;;;;;12.45;87.21;97477.31;5041847;28;20057;-81
2022/10/03 00:49:00;;;;;;;10.15;7.35;;;;;;;12.44;87.92;97483.56;5041419;28;20053;-80
2022/10/03 00:51:47;;;;;;;8.75;7.38;;;;;;;12.42;86.11;97484.69;5041899;28;20053;-80
2022/10/03 00:54:46;;;;;;;9.98;7.70;;;;;;;12.41;88.05;97480.47;5042874;28;20049;-80
2022/10/03 00:57:36;;;;;;;11.40;8.40;;;;;;;12.39;87.51;97480.63;5041895;28;20060;-81
2022/10/03 01:00:19;;;;;;;10.23;8.30;;;;;;;12.33;86.18;97484.75;5041341;28;20111;-81
2022/10/03 01:03:20;;;;;;;8.77;7.88;;;;;;;12.30;85.42;97489.50;5040781;28;20049;-80
2022/10/03 01:06:07;;;;;;;11.48;9.10;;;;;;;12.27;84.90;97495.09;5041689;28;20076;-80
2022/10/03 01:09:05;;;;;;;8.73;7.78;;;;;;;12.26;86.73;97503.91;5041203;28;20056;-81
2022/10/03 01:11:52;;;;;;;9.85;8.57;;;;;;;12.24;85.41;97498.03;5023387;28;20080;-81
2022/10/03 01:14:42;;;;;;;8.65;7.50;;;;;;;12.21;86.04;97493.97;5041020;28;20057;-80
2022/10/03 01:17:26;;;;;;;9.88;8.07;;;;;;;12.20;86.02;97491.50;5040366;28;20054;-80
2022/10/03 01:20:13;;;;;;;12.52;8.25;;;;;;;12.19;85.41;97503.78;5039875;28;20050;-80
2022/10/03 01:23:05;;;;;;;10.80;8.30;;;;;;;12.14;84.66;97491.22;5040145;28;20049;-80
2022/10/03 01:25:46;;;;;;;9.80;8.13;;;;;;;12.15;86.05;97492.00;5040090;28;20113;-82
2022/10/03 01:31:34;;;;;;;9.98;8.80;;;;;;;12.13;85.46;97500.06;5039899;28;20053;-81
2022/10/03 01:34:11;;;;;;;9.38;7.65;;;;;;;12.14;85.40;97487.78;5040302;28;20057;-80
2022/10/03 01:36:52;;;;;;;12.00;9.00;;;;;;;12.13;84.64;97492.19;5040707;28;20132;-79
2022/10/03 01:39:28;;;;;;;8.98;8.05;;;;;;;12.15;85.42;97502.47;5046114;28;20084;-82
2022/10/03 01:42:02;;;;;;;9.73;7.65;;;;;;;12.18;86.05;97493.47;5057442;28;20049;-84
2022/10/03 01:44:51;;;;;;;9.45;8.55;;;;;;;12.23;85.58;97501.63;5057754;28;20045;-83
2022/10/03 01:47:25;;;;;;;13.60;9.32;;;;;;;12.21;84.89;97496.56;5046775;28;20055;-83
2022/10/03 01:50:02;;;;;;;11.98;8.80;;;;;;;12.17;83.94;97495.28;5045758;28;20091;-83
2022/10/03 01:52:42;;;;;;;11.70;8.93;;;;;;;12.13;83.94;97500.06;5045973;28;20520;-80
2022/10/03 01:55:19;;;;;;;11.50;9.95;;;;;;;12.11;83.70;97504.63;5044712;28;20069;-80
2022/10/03 01:58:00;;;;;;;9.73;8.38;;;;;;;12.11;84.59;97504.63;5044619;28;20065;-80
2022/10/03 02:00:40;;;;;;;10.80;9.60;;;;;;;12.11;84.04;97495.94;5045239;28;20105;-80
2022/10/03 02:03:20;;;;;;;13.25;10.35;;;;;;;12.08;83.89;97498.91;5044622;28;20057;-82
2022/10/03 02:06:01;;;;;;;9.75;8.75;;;;;;;12.08;84.84;97501.53;5045340;28;20581;-81
2022/10/03 02:08:46;;;;;;;13.55;9.90;;;;;;;12.09;84.68;97508.38;5044227;28;20059;-80
2022/10/03 02:11:32;;;;;;;9.32;8.30;;;;;;;12.14;86.24;97511.31;5044022;28;20073;-81
2022/10/03 02:14:22;;;;;;;11.07;9.10;;;;;;;12.21;87.89;97506.22;5044971;28;20474;-81
2022/10/03 02:17:00;;;;;;;11.10;8.55;;;;;;;12.25;87.65;97510.13;5043985;28;20060;-81
2022/10/03 02:19:36;;;;;;;11.73;9.32;;;;;;;12.29;87.24;97516.66;5044291;28;20548;-81
2022/10/03 02:22:15;;;;;;;14.82;9.68;;;;;;;12.29;86.55;97520.09;5042388;28;20045;-82
2022/10/03 02:24:53;;;;;;;12.38;10.02;;;;;;;12.29;87.24;97521.91;5042998;28;20049;-81
2022/10/03 02:27:49;;;;;;;10.82;9.65;;;;;;;12.33;88.23;97524.00;5044658;28;20046;-81
2022/10/03 02:30:22;;;;;;;12.38;10.10;;;;;;;12.35;87.01;97529.88;5043820;28;20108;-81
2022/10/03 02:33:06;;;;;;;;;;;;;;;12.35;86.97;97532.50;5044836;28;20076;-81
2022/10/03 02:36:05;;;;;;;14.07;10.48;;;;;;;12.35;87.10;97532.50;5044540;28;19921;-81
2022/10/03 02:39:15;;;;;;;11.93;10.52;;;;;;;12.35;87.13;97540.34;5044517;28;20052;-81
2022/10/03 02:42:17;;;;;;;12.30;10.25;;;;;;;12.35;87.78;97536.88;4983988;28;20080;-80
2022/10/03 02:45:07;;;;;;;15.27;11.48;;;;;;;12.36;88.02;97533.31;4981229;28;20066;-80
2022/10/03 02:48:04;;;;;;;13.32;10.55;;;;;;;12.39;87.41;97540.00;5035202;28;20057;-81
2022/10/03 02:51:32;;;;;;;13.40;10.77;;;;;;;12.37;85.54;97540.16;5012827;28;20053;-81
2022/10/03 02:54:49;;;;;;;14.60;10.90;;;;;;;12.39;86.38;97545.22;5058535;28;20049;-82
2022/10/03 02:57:59;;;;;;;15.35;11.18;;;;;;;12.38;86.77;97538.38;5007594;28;20065;-81
2022/10/03 03:00:47;;;;;;;13.38;11.50;;;;;;;12.39;86.72;97546.03;5046743;28;20053;-82
2022/10/03 03:03:34;;;;;;;16.25;11.40;;;;;;;12.39;86.66;97546.03;5049632;23;20144;-79
2022/10/03 03:06:31;;;;;;;14.50;11.35;;;;;;;12.39;85.52;97550.47;5034412;28;20045;-81
2022/10/03 03:09:37;;;;;;;13.48;11.32;;;;;;;12.38;86.06;97556.69;5034625;28;20457;-79
2022/10/03 03:12:26;;;;;;;15.00;10.45;;;;;;;12.38;86.09;97548.84;5013358;28;20049;-78
2022/10/03 03:15:28;;;;;;;14.18;10.60;;;;;;;12.37;85.72;97550.63;5026426;28;20055;-78
2022/10/03 03:18:06;;;;;;;15.35;11.68;;;;;;;12.35;85.70;97556.03;5002038;28;20099;-78
2022/10/03 03:20:56;;;;;;;13.98;11.60;;;;;;;12.31;85.16;97559.97;5034446;28;20046;-78
2022/10/03 03:23:53;;;;;;;14.82;10.98;;;;;;;12.29;84.76;97550.69;5034321;28;20521;-78
2022/10/03 03:26:36;;;;;;;15.27;11.10;;;;;;;12.30;86.35;97547.88;5034520;28;20053;-79
2022/10/03 03:29:13;;;;;;;13.45;11.43;;;;;;;12.31;85.89;97549.50;5033782;28;20053;-78
2022/10/03 03:31:49;;;;;;;16.27;12.52;;;;;;;12.30;85.92;97552.28;5034468;28;20053;-78
2022/10/03 03:34:27;;;;;;;16.55;12.02;;;;;;;12.28;85.86;97549.84;5034103;28;20502;-78
2022/10/03 03:37:01;;;;;;;17.75;11.55;;;;;;;12.28;86.09;97555.06;5034221;28;20049;-78
2022/10/03 03:39:46;;;;;;;16.48;12.30;;;;;;;12.28;86.25;97556.88;5033617;28;20430;-78
2022/10/03 03:42:39;;;;;;;17.60;12.20;;;;;;;12.29;86.03;97555.91;5034066;28;20055;-79
2022/10/03 03:45:28;;;;;;;15.80;12.60;;;;;;;12.28;85.81;97554.25;5034000;28;20107;-78
2022/10/03 03:48:11;;;;;;;15.88;10.85;;;;;;;12.25;85.63;97560.66;5033937;28;20050;-78
2022/10/03 03:50:46;;;;;;;;;;;;;;;12.27;85.95;97555.25;5034079;28;20046;-78
2022/10/03 03:53:46;;;;;;;14.52;11.02;;;;;;;12.25;85.75;97550.19;5033604;28;19921;-81
2022/10/03 03:56:39;;;;;;;16.83;11.40;;;;;;;12.21;84.85;97548.06;5033655;28;20453;-81
2022/10/03 03:59:23;;;;;;;14.63;10.65;;;;;;;12.20;86.04;97547.28;5033440;28;20069;-80
2022/10/03 04:02:08;;;;;;;16.75;10.80;;;;;;;12.20;86.60;97556.91;5033500;28;20049;-81
2022/10/03 04:05:02;;;;;;;13.95;10.90;;;;;;;12.20;86.84;97556.91;5033442;28;20050;-81
2022/10/03 04:07:48;;;;;;;15.25;11.27;;;;;;;12.16;86.29;97552.00;5024965;28;20057;-78
2022/10/03 04:10:28;;;;;;;18.02;11.30;;;;;;;12.09;84.41;97560.69;5033325;28;20120;-77
2022/10/03 04:13:22;;;;;;;16.20;11.38;;;;;;;12.02;84.15;97555.31;5033622;28;20101;-78
2022/10/03 04:18:56;;;;;;;17.05;10.90;;;;;;;11.98;84.13;97547.97;5032865;28;20045;-78
2022/10/03 04:19:18;;;;;;;14.30;10.52;;;;;;;11.97;85.64;97554.19;5044384;28;20079;-78
2022/10/03 04:22:11;;;;;;;20.40;13.88;;;;;;;11.94;84.76;97553.53;5047424;28;20542;-78
2022/10/03 04:25:04;;;;;;;21.95;14.35;;;;;;;11.92;84.18;97558.13;5034489;28;20050;-78
2022/10/03 04:27:43;;;;;;;;;;;;;;;11.91;84.00;97559.09;5033616;28;20064;-78
2022/10/03 04:30:14;;;;;;;16.67;11.73;;;;;;;11.84;83.89;97560.72;5033039;28;20412;-78
2022/10/03 04:32:56;;;;;;;15.20;11.73;;;;;;;11.83;84.50;97566.94;5033175;28;20045;-78
2022/10/03 04:36:20;;;;;;;19.20;12.57;;;;;;;11.83;84.11;97566.94;5033143;28;20053;-78
2022/10/03 04:38:59;;;;;;;16.20;11.45;;;;;;;11.81;84.53;97568.91;4952025;29;20102;-78
2022/10/03 04:41:37;;;;;;;14.52;11.60;;;;;;;11.80;84.54;97569.84;5033248;28;20049;-78
2022/10/03 04:44:32;;;;;;;19.88;11.43;;;;;;;11.77;83.58;97572.81;5027906;28;20057;-77
2022/10/03 04:47:09;;;;;;;18.83;12.43;;;;;;;11.73;84.15;97571.50;5021272;28;20060;-78
2022/10/03 04:49:42;;;;;;;17.90;12.68;;;;;;;11.72;83.81;97569.91;5018072;28;20050;-78
2022/10/03 04:52:19;;;;;;;19.20;13.70;;;;;;;11.68;83.74;97563.34;5020257;28;20052;-78
2022/10/03 04:54:54;;;;;;;20.48;13.68;;;;;;;11.66;83.56;97570.53;5032563;28;20124;-78
2022/10/03 04:57:31;;;;;;;18.73;13.18;;;;;;;11.62;84.08;97566.63;5032923;28;20046;-78
2022/10/03 05:00:16;;;;;;;21.20;12.18;;;;;;;11.64;84.24;97565.47;5024338;28;20049;-78
2022/10/03 05:02:54;;;;;;;15.40;11.35;;;;;;;11.67;85.09;97564.31;5028166;28;20418;-77
2022/10/03 05:05:41;;;;;;;14.13;11.02;;;;;;;11.74;86.27;97571.34;5016185;28;20441;-78
2022/10/03 05:08:19;;;;;;;15.45;11.38;;;;;;;11.79;87.03;97565.63;5030567;28;20053;-79
2022/10/03 05:10:56;;;;;;;19.70;13.13;;;;;;;11.81;85.91;97571.50;5018439;28;20066;-78
2022/10/03 05:13:38;;;;;;;14.82;12.00;;;;;;;11.82;86.20;97570.50;5024366;28;20050;-78
2022/10/03 05:16:18;;;;;;;11.35;9.55;;;;;;;11.84;87.30;97568.56;5033039;28;20700;-79
2022/10/03 05:18:53;;;;;;;17.15;12.43;;;;;;;11.78;84.92;97571.81;5032184;28;20136;-81
2022/10/03 05:21:34;;;;;;;17.65;13.15;;;;;;;11.73;84.67;97574.13;5011741;28;20057;-79
2022/10/03 05:24:16;;;;;;;16.85;12.23;;;;;;;11.71;85.14;97578.69;5013009;28;20046;-79
2022/10/03 05:26:52;;;;;;;16.45;12.23;;;;;;;11.72;86.03;97580.34;5026802;28;20053;-79
2022/10/03 05:29:28;;;;;;;16.58;12.65;;;;;;;11.73;86.41;97587.19;5030934;28;20060;-79
2022/10/03 05:32:13;;;;;;;15.77;12.13;;;;;;;11.73;86.72;97581.97;5036526;28;20036;-79
2022/10/03 05:35:03;;;;;;;16.15;11.95;;;;;;;11.74;86.21;97589.66;5052557;28;20494;-80
2022/10/03 05:37:52;;;;;;;17.08;12.40;;;;;;;11.75;86.91;97590.47;5052585;28;20510;-79
2022/10/03 05:40:24;;;;;;;14.70;11.10;;;;;;;11.76;87.07;97592.06;5052928;28;20621;-80
2022/10/03 05:43:07;;;;;;;17.20;12.87;;;;;;;11.78;87.75;97595.34;5053188;28;20057;-79
2022/10/03 05:45:48;;;;;;;16.33;12.45;;;;;;;11.78;87.43;97600.56;5053060;28;20056;-79
2022/10/03 05:48:30;;;;;;;16.08;11.55;;;;;;;11.78;88.12;97600.56;5053272;28;20045;-79
2022/10/03 05:51:16;;;;;;;18.65;13.63;;;;;;;11.76;86.94;97605.16;5050497;28;20069;-79
2022/10/03 05:54:22;;;;;;;18.00;12.90;;;;;;;11.74;87.00;97604.50;5032299;28;20121;-80
2022/10/03 05:57:24;;;;;;;23.48;14.48;;;;;;;11.70;85.42;97600.59;5011726;28;20091;-80
2022/10/03 06:00:06;;;;;;;20.08;12.60;;;;;;;11.70;85.33;97605.84;5001802;28;20054;-80
2022/10/03 06:02:52;;;;;;;21.40;13.10;;;;;;;11.69;85.33;97602.38;5018774;28;20080;-80
2022/10/03 06:05:46;;;;;;;18.45;13.07;;;;;;;11.69;85.44;97606.78;5032475;28;20053;-80
2022/10/03 06:08:49;;;;;;;19.23;12.25;;;;;;;11.68;85.17;97611.22;5033063;28;20045;-79
2022/10/03 06:11:45;;;;;;;19.73;12.63;;;;;;;11.66;84.73;97614.97;5008472;28;20137;-79
2022/10/03 06:14:34;;;;;;;16.23;11.93;;;;;;;11.68;86.19;97616.44;5015168;28;20069;-80
2022/10/03 06:17:28;;;;;;;18.27;12.48;;;;;;;11.70;85.94;97616.28;5042148;28;20065;-80
2022/10/03 06:20:13;;;;;;;16.63;11.52;;;;;;;11.70;84.06;97624.94;5038698;28;20053;-79
2022/10/03 06:23:20;;;;;;;15.85;10.63;;;;;;;11.73;83.67;97629.00;5018159;28;20053;-79
2022/10/03 06:26:14;;;;;;;13.90;9.80;;;;;;;11.73;83.52;97627.22;5031877;28;20058;-79
2022/10/03 06:29:23;;;;;;;12.23;9.90;;;;;;;11.76;83.83;97628.69;5012228;28;20096;-79
2022/10/03 06:32:25;;;;;;;18.23;10.75;;;;;;;11.76;82.59;97633.91;4997315;28;20482;-79
2022/10/03 06:35:25;;;;;;;20.02;11.70;;;;;;;11.75;82.13;97638.31;5008343;28;20061;-79
2022/10/03 06:38:36;;;;;;;15.05;10.50;;;;;;;11.77;81.99;97637.34;5024581;28;20049;-79
2022/10/03 06:41:29;;;;;;;16.42;10.90;;;;;;;11.78;82.81;97645.00;5025120;28;20533;-80
2022/10/03 06:44:15;;;;;;;17.83;9.93;;;;;;;11.81;82.64;97652.56;5035400;28;20049;-79
2022/10/03 06:47:25;;;;;;;15.32;10.45;;;;;;;11.82;82.17;97654.16;5021017;28;20431;-80
2022/10/03 06:50:34;;;;;;;15.63;10.52;;;;;;;11.82;82.08;97656.78;5034295;28;20056;-79
2022/10/03 06:53:18;;;;;;;20.65;11.18;;;;;;;11.83;81.90;97653.19;5020587;28;20557;-78
2022/10/03 06:56:15;;;;;;;16.00;11.27;;;;;;;11.86;82.59;97658.09;5027195;28;20049;-79
2022/10/03 06:59:08;;;;;;;12.95;9.35;;;;;;;11.93;81.49;97655.66;5027533;28;20046;-79
2022/10/03 07:02:09;;;;;;;13.80;9.15;;;;;;;11.91;80.84;97655.81;5035109;28;20045;-79
2022/10/03 07:05:09;;;;;;;15.98;9.40;;;;;;;11.94;81.08;97652.91;5035444;28;20049;-79
2022/10/03 07:08:14;;;;;;;11.73;9.38;;;;;;;11.98;80.06;97657.78;5034688;28;20059;-79
2022/10/03 07:10:55;;;;;;;17.17;8.63;;;;;;;12.01;80.14;97662.72;5034864;28;20054;-79
2022/10/03 07:13:53;;;;;;;14.57;8.30;;;;;;;12.03;79.88;97665.97;5030788;28;20037;-78
2022/10/03 07:17:10;;;;;;;17.23;9.80;;;;;;;12.04;80.48;97673.63;5008490;28;20529;-81
2022/10/03 07:19:57;;;;;;;14.05;8.75;;;;;;;12.09;80.85;97671.38;5033011;28;20529;-79
2022/10/03 07:23:05;;;;;;;15.52;9.27;;;;;;;12.13;80.21;97679.69;5050671;28;20061;-78
2022/10/03 07:26:16;;;;;;;13.48;9.48;;;;;;;12.14;79.80;97683.94;5008004;28;20116;-79
2022/10/03 07:29:08;;;;;;;13.20;8.70;;;;;;;12.15;80.08;97683.75;5010272;28;20049;-78
2022/10/03 07:31:51;;;;;;;10.65;8.15;;;;;;;12.14;79.54;97684.75;5022017;28;20497;-78
2022/10/03 07:34:42;;;;;;;15.65;8.45;;;;;;;12.16;80.20;97698.47;5033839;28;20045;-79
2022/10/03 07:40:44;;;;;;;17.08;8.45;;;;;;;12.17;80.27;97707.13;5025006;28;20516;-79
2022/10/03 07:43:45;;;;;;;10.15;7.72;;;;;;;12.23;81.71;97700.44;5024522;28;20055;-79
2022/10/03 07:46:38;;;;;;;13.43;8.18;;;;;;;12.22;81.04;97709.25;5034653;28;20049;-78
2022/10/03 07:49:23;;;;;;;11.40;7.63;;;;;;;12.26;81.09;97719.22;5015757;28;20080;-79
2022/10/03 07:52:14;;;;;;;10.20;6.53;;;;;;;12.36;81.63;97725.13;5030333;28;20062;-79
2022/10/03 07:55:10;;;;;;;10.77;6.45;;;;;;;12.45;79.51;97723.31;5027211;28;20049;-78
2022/10/03 07:58:04;;;;;;;9.68;5.80;;;;;;;12.60;78.93;97726.06;5022356;28;20045;-78
2022/10/03 08:00:51;;;;;;;8.98;6.28;;;;;;;12.93;76.38;97715.50;5028093;28;20049;-79
2022/10/03 08:04:01;;;;;;;12.07;5.90;;;;;;;13.39;76.32;97723.53;5013919;28;20057;-79
2022/10/03 08:06:37;;;;;;;10.95;5.72;;;;;;;13.97;73.97;97724.81;5016671;28;20061;-79
2022/10/03 08:09:35;;;;;;;11.07;5.80;;;;;;;14.28;70.42;97723.06;5033193;28;20111;-79
2022/10/03 08:12:25;;;;;;;7.57;4.88;;;;;;;14.48;70.03;97718.97;5023433;28;20054;-79
2022/10/03 08:15:03;;;;;;;9.75;4.53;;;;;;;14.90;71.45;97722.00;5025502;28;20049;-79
2022/10/03 08:18:15;;;;;;;5.55;4.00;;;;;;;15.76;67.95;97719.59;5026915;28;20057;-80
2022/10/03 08:20:53;;;;;;;6.63;2.90;;;;;;;16.35;62.43;97711.41;5029697;28;20115;-79
2022/10/03 08:24:04;;;;;;;6.40;3.25;;;;;;;16.64;61.67;97717.50;5020484;28;20169;-78
2022/10/03 08:26:45;;;;;;;4.60;3.35;;;;;;;16.74;60.81;97712.69;5004804;28;20054;-78
2022/10/03 08:29:52;;;;;;;8.73;3.92;;;;;;;16.77;60.94;97711.50;5032087;28;20045;-78
2022/10/03 08:32:48;;;;;;;6.00;3.50;;;;;;;16.73;61.90;97721.63;5032974;28;20060;-78
2022/10/03 08:35:34;;;;;;;8.43;4.05;;;;;;;16.64;60.14;97728.84;5032382;28;20049;-77
2022/10/03 08:38:25;;;;;;;7.32;3.58;;;;;;;16.39;60.52;97725.81;5028948;28;20049;-78
2022/10/03 08:41:25;;;;;;;6.55;3.40;;;;;;;16.19;60.87;97719.59;5024885;28;20087;-78
2022/10/03 08:44:21;;;;;;;7.00;3.28;;;;;;;16.00;61.21;97719.22;5032857;28;20083;-77
2022/10/03 08:47:19;;;;;;;5.30;3.22;;;;;;;16.05;61.90;97718.69;5033236;28;20049;-79
2022/10/03 08:50:37;;;;;;;8.63;3.33;;;;;;;16.22;62.70;97719.22;5020523;28;20050;-78
2022/10/03 08:53:39;;;;;;;9.25;2.92;;;;;;;16.18;62.50;97717.97;5012596;28;20050;-79
2022/10/03 08:56:13;;;;;;;4.50;2.45;;;;;;;16.13;61.77;97715.09;5018514;28;20495;-79
2022/10/03 08:59:06;;;;;;;5.70;2.83;;;;;;;16.46;61.74;97718.81;5033497;28;20104;-80
2022/10/03 09:01:56;;;;;;;12.55;3.53;;;;;;;17.49;58.96;97718.13;5026824;28;20107;-80
2022/10/03 09:05:18;;;;;;;4.80;2.92;;;;;;;17.95;58.48;97717.47;5033340;28;20045;-79
2022/10/03 09:08:22;;;;;;;7.68;2.78;;;;;;;17.81;56.71;97726.34;4936990;29;20102;-79
2022/10/03 09:11:13;;;;;;;6.65;3.20;;;;;;;17.64;57.55;97713.50;4987262;28;20046;-79
2022/10/03 09:14:15;;;;;;;6.05;2.83;;;;;;;17.60;55.97;97716.75;5017683;28;20767;-79
2022/10/03 09:16:58;;;;;;;11.70;3.35;;;;;;;17.37;57.90;97717.91;5036691;28;20099;-80
2022/10/03 09:19:56;;;;;;;8.25;2.45;;;;;;;17.22;60.07;97718.03;5028662;28;20046;-79
2022/10/03 09:22:50;;;;;;;4.65;2.10;;;;;;;17.42;58.73;97720.75;5032981;23;20069;-79
2022/10/03 09:25:38;;;;;;;4.93;2.03;;;;;;;18.42;58.24;97715.66;5000244;28;20064;-80
2022/10/03 09:28:29;;;;;;;4.20;2.10;;;;;;;19.70;53.14;97717.75;5012886;28;20056;-80
2022/10/03 09:31:13;;;;;;;11.15;2.25;;;;;;;21.22;46.74;97716.66;4993838;28;20145;-81
2022/10/03 09:34:25;;;;;;;4.75;2.28;;;;;;;23.03;43.71;97708.41;5004283;28;20046;-81
2022/10/03 09:37:40;;;;;;;5.47;2.63;;;;;;;23.82;41.99;97715.00;5013261;28;20057;-81
2022/10/03 09:40:39;;;;;;;4.40;2.03;;;;;;;23.76;41.23;97715.94;4977402;28;20058;-80
2022/10/03 09:43:54;;;;;;;3.97;2.58;;;;;;;22.61;42.23;97710.38;5000496;28;20057;-82
2022/10/03 09:50:18;;;;;;;8.07;2.63;;;;;;;20.55;46.72;97714.69;5022015;28;20056;-81
2022/10/03 09:53:26;;;;;;;7.30;2.67;;;;;;;20.02;49.66;97715.09;5037214;28;20038;-81
2022/10/03 09:56:28;;;;;;;9.38;3.10;;;;;;;20.05;47.45;97719.97;5036246;28;20054;-82
2022/10/03 09:59:29;;;;;;;5.07;2.20;;;;;;;20.87;46.24;97714.59;5017624;28;20062;-83
2022/10/03 10:02:49;;;;;;;6.47;2.92;;;;;;;21.96;43.16;97713.88;5023407;28;20030;-82
2022/10/03 10:06:20;;;;;;;3.50;2.10;;;;;;;21.54;43.94;97719.16;5017883;28;20082;-83
2022/10/03 11:03:25;;;;;;;4.82;1.80;;;;;;;26.33;33.84;97704.88;4931859;23;20434;-82
2022/10/03 11:06:44;;;;;;;6.88;1.48;;;;;;;26.34;35.95;97717.16;5029545;28;20051;-83
2022/10/03 11:16:21;;;;;;;5.55;1.85;;;;;;;24.57;35.07;97705.81;5052770;28;20045;-81
2022/10/03 11:19:43;;;;;;;4.20;1.40;;;;;;;23.69;36.00;97709.94;5036380;28;20049;-81
2022/10/03 11:23:06;;;;;;;4.78;1.58;;;;;;;22.93;37.00;97713.47;5021019;28;20049;-80
2022/10/03 11:26:06;;;;;;;7.10;1.30;;;;;;;22.22;38.31;97702.03;5092867;23;20503;-80
2022/10/03 11:29:31;;;;;;;3.63;1.48;;;;;;;21.71;40.70;97696.25;5214921;23;20050;-80
2022/10/03 11:32:35;;;;;;;5.80;1.90;;;;;;;21.37;40.75;97697.69;5041849;28;20052;-80
2022/10/03 11:35:34;;;;;;;3.65;1.92;;;;;;;21.76;40.79;97693.72;5015259;28;20053;-80
2022/10/03 11:38:15;;;;;;;5.40;1.45;;;;;;;22.41;38.44;97684.13;4999127;28;20080;-79
2022/10/03 11:40:56;;;;;;;5.45;1.27;;;;;;;22.76;37.48;97683.28;5017363;28;20046;-82
2022/10/03 11:43:50;;;;;;;2.45;1.20;;;;;;;22.89;39.31;97690.22;5024476;28;20057;-82
2022/10/03 11:46:29;;;;;;;4.30;1.70;;;;;;;23.01;37.99;97683.06;5034258;28;20030;-82
2022/10/03 11:49:23;;;;;;;4.72;1.75;;;;;;;23.44;36.42;97682.59;5037667;28;20053;-82
2022/10/03 11:52:03;;;;;;;6.38;2.20;;;;;;;23.86;36.30;97684.16;5036667;28;20037;-81
2022/10/03 11:54:36;;;;;;;4.70;1.60;;;;;;;25.05;33.83;97680.31;5018676;28;20049;-82
2022/10/03 11:57:09;;;;;;;4.05;1.63;;;;;;;25.99;32.92;97688.28;5027277;28;20057;-82
2022/10/03 11:59:53;;;;;;;2.45;1.60;;;;;;;26.52;31.49;97681.16;5025844;28;20056;-82
2022/10/03 12:02:43;;;;;;;4.70;1.42;;;;;;;27.17;30.86;97675.63;5025977;28;20046;-82
2022/10/03 12:05:21;;;;;;;4.57;1.80;;;;;;;27.43;30.17;97674.66;5026430;28;20063;-82
2022/10/03 12:11:05;;;;;;;4.93;1.40;;;;;;;25.57;33.08;97675.56;5025810;28;20050;-82
2022/10/03 12:13:40;;;;;;;5.10;1.50;;;;;;;24.79;34.12;97670.34;5035976;28;20106;-82
2022/10/03 12:16:31;;;;;;;1.90;1.05;;;;;;;24.04;35.72;97675.13;5325584;23;20097;-81
2022/10/03 12:22:22;;;;;;;4.05;1.20;;;;;;;22.93;40.33;97670.09;5054571;28;20049;-80
2022/10/03 12:24:54;;;;;;;5.68;1.92;;;;;;;22.55;37.97;97672.22;5026151;28;20054;-79
2022/10/03 12:27:43;;;;;;;3.55;1.30;;;;;;;22.27;39.92;97677.44;5023121;28;20048;-82
2022/10/03 12:30:15;;;;;;;3.15;1.10;;;;;;;22.12;38.20;97670.66;5024498;28;20057;-82
2022/10/03 12:32:57;;;;;;;4.35;1.55;;;;;;;21.95;39.42;97672.38;5025451;28;20050;-83
2022/10/03 12:35:39;;;;;;;4.38;1.40;;;;;;;21.77;38.94;97663.44;5023632;28;20561;-82
2022/10/03 12:38:32;;;;;;;3.90;1.40;;;;;;;21.67;40.24;97671.19;5021847;28;20054;-82
2022/10/03 12:41:16;;;;;;;4.75;1.40;;;;;;;21.63;39.31;97666.56;5004176;28;20046;-82
2022/10/03 12:44:03;;;;;;;3.03;1.30;;;;;;;21.57;40.56;97660.28;5029565;28;20038;-82
2022/10/03 12:46:42;;;;;;;4.93;1.52;;;;;;;21.51;39.59;97662.00;5022768;28;20042;-82
2022/10/03 12:49:15;;;;;;;4.63;1.10;;;;;;;21.35;38.49;97658.09;5020594;28;20066;-82
2022/10/03 12:51:54;;;;;;;5.35;1.50;;;;;;;21.23;39.34;97662.56;5022090;28;20046;-82
2022/10/03 12:54:37;;;;;;;5.10;1.60;;;;;;;21.09;39.69;97651.28;5017724;28;20049;-82
2022/10/03 12:57:39;;;;;;;6.00;1.60;;;;;;;20.93;39.26;97647.41;4998373;28;20058;-82
2022/10/03 13:00:19;;;;;;;3.47;1.30;;;;;;;20.84;40.31;97637.31;4998091;28;20050;-82
2022/10/03 13:03:01;;;;;;;3.72;1.13;;;;;;;20.77;40.99;97640.03;5018934;28;20046;-82
2022/10/03 13:05:54;;;;;;;4.65;1.48;;;;;;;20.62;41.69;97637.78;5025536;28;20045;-83
2022/10/03 13:08:42;;;;;;;3.83;1.17;;;;;;;20.41;39.07;97638.16;4997715;28;20061;-82
2022/10/03 13:11:26;;;;;;;5.13;1.10;;;;;;;20.27;39.95;97637.47;5000822;28;20061;-82
2022/10/03 13:14:07;;;;;;;3.28;0.85;;;;;;;20.15;39.88;97632.88;5016531;28;20542;-81
2022/10/03 13:16:45;;;;;;;4.57;1.30;;;;;;;20.02;38.89;97625.06;5016085;28;20049;-81
2022/10/03 13:19:17;;;;;;;3.42;1.27;;;;;;;19.92;40.15;97627.41;5017312;28;20054;-82
2022/10/03 13:21:53;;;;;;;;;;;;;;;19.95;40.90;97632.25;5016742;28;20050;-82
2022/10/03 13:24:31;;;;;;;2.38;0.63;;;;;;;19.91;42.34;97628.41;5018172;28;19945;-82
2022/10/03 13:27:13;;;;;;;5.97;1.23;;;;;;;19.90;41.47;97634.75;5018257;28;20065;-82
2022/10/03 13:29:43;;;;;;;3.72;1.30;;;;;;;19.89;40.11;97641.03;5016856;28;20057;-82
2022/10/03 13:32:31;;;;;;;2.88;1.10;;;;;;;19.85;39.97;97632.72;5016434;28;20050;-81
2022/10/03 13:38:35;;;;;;;2.60;0.68;;;;;;;19.71;39.42;97628.56;5017799;28;20054;-82
2022/10/03 13:41:13;;;;;;;3.72;1.20;;;;;;;19.59;40.01;97623.13;5015502;28;20529;-82
2022/10/03 13:43:54;;;;;;;2.95;0.98;;;;;;;19.56;42.03;97619.03;5031937;28;20053;-81
2022/10/03 13:46:30;;;;;;;3.28;1.30;;;;;;;19.53;40.73;97621.31;5020368;28;20514;-82
2022/10/03 13:49:09;;;;;;;1.50;0.80;;;;;;;19.49;40.84;97623.59;5018653;28;20123;-82
2022/10/03 13:51:46;;;;;;;3.17;1.17;;;;;;;19.46;42.13;97625.84;5026175;28;20046;-82
2022/10/03 13:54:22;;;;;;;3.45;1.25;;;;;;;19.45;44.15;97629.50;5031446;28;20033;-80
2022/10/03 13:56:56;;;;;;;3.72;1.20;;;;;;;19.41;43.31;97623.03;5030851;28;20077;-82
2022/10/03 13:59:36;;;;;;;2.83;1.20;;;;;;;19.28;43.29;97624.72;5017876;28;20053;-82
2022/10/03 14:02:35;;;;;;;5.32;2.08;;;;;;;19.17;44.04;97620.09;5018918;28;20054;-82
2022/10/03 14:05:32;;;;;;;2.75;1.48;;;;;;;19.07;43.85;97617.13;5006612;28;20407;-82
2022/10/03 14:08:09;;;;;;;3.25;1.55;;;;;;;18.96;44.46;97623.03;5008627;28;20061;-82
2022/10/03 14:11:05;;;;;;;2.85;1.20;;;;;;;18.87;44.75;97617.19;5020497;28;20251;-82
2022/10/03 14:13:45;;;;;;;2.47;1.02;;;;;;;18.76;44.87;97620.44;5020188;28;20050;-82
2022/10/03 14:16:19;;;;;;;4.13;1.50;;;;;;;18.67;45.67;97618.06;5019531;28;20049;-82
2022/10/03 14:18:54;;;;;;;3.50;1.55;;;;;;;18.57;45.38;97615.03;5017240;28;20052;-82
2022/10/03 14:21:40;;;;;;;3.58;1.27;;;;;;;18.42;45.42;97614.47;5018585;28;20074;-82
2022/10/03 14:24:25;;;;;;;5.88;1.45;;;;;;;18.29;45.62;97620.56;5023392;28;20384;-82
2022/10/03 14:26:59;;;;;;;6.20;1.45;;;;;;;18.16;46.37;97620.59;5023955;28;20045;-82
2022/10/03 14:29:36;;;;;;;2.80;1.20;;;;;;;18.05;46.32;97614.91;5017759;28;20049;-82